sensor_id;sensor_type;location;lat;lon;timestamp;pressure;altitude;pressure_sealevel;temperature;humidity
57114;BME280;42994;51.606;9.988;2023-02-03T00:02:07;99483.19;;;4.02;100.00
57114;BME280;42994;51.606;9.988;2023-02-03T00:04:33;99485.31;;;4.18;100.00
57114;BME280;42994;51.606;9.988;2023-02-03T00:07:00;99484.59;;;4.26;100.00
57114;BME280;42994;51.606;9.988;2023-02-03T00:09:27;99480.81;;;4.19;100.00
57114;BME280;42994;51.606;9.988;2023-02-03T00:11:55;99473.81;;;4.18;100.00
57114;BME280;42994;51.606;9.988;2023-02-03T00:14:21;99464.34;;;4.15;100.00
57114;BME280;42994;51.606;9.988;2023-02-03T00:16:48;99462.09;;;4.30;100.00
57114;BME280;42994;51.606;9.988;2023-02-03T00:19:15;99457.09;;;4.37;100.00
57114;BME280;42994;51.606;9.988;2023-02-03T00:21:41;99460.56;;;4.37;100.00
57114;BME280;42994;51.606;9.988;2023-02-03T00:24:08;99453.44;;;4.48;100.00
57114;BME280;42994;51.606;9.988;2023-02-03T00:26:39;99423.66;;;4.54;100.00
57114;BME280;42994;51.606;9.988;2023-02-03T00:29:08;99408.72;;;4.43;100.00
57114;BME280;42994;51.606;9.988;2023-02-03T00:31:34;99427.34;;;4.33;100.00
57114;BME280;42994;51.606;9.988;2023-02-03T00:34:01;99449.94;;;4.57;100.00
57114;BME280;42994;51.606;9.988;2023-02-03T00:36:28;99434.69;;;4.59;100.00
57114;BME280;42994;51.606;9.988;2023-02-03T00:38:54;99438.31;;;4.58;100.00
57114;BME280;42994;51.606;9.988;2023-02-03T00:41:22;99430.22;;;4.59;100.00
57114;BME280;42994;51.606;9.988;2023-02-03T00:43:50;99413.31;;;4.60;100.00
57114;BME280;42994;51.606;9.988;2023-02-03T00:46:18;99413.56;;;4.67;100.00
57114;BME280;42994;51.606;9.988;2023-02-03T00:48:45;99420.81;;;4.75;100.00
57114;BME280;42994;51.606;9.988;2023-02-03T00:51:11;99427.78;;;4.86;100.00
57114;BME280;42994;51.606;9.988;2023-02-03T00:53:38;99424.53;;;4.92;100.00
57114;BME280;42994;51.606;9.988;2023-02-03T00:56:05;99429.56;;;4.95;100.00
57114;BME280;42994;51.606;9.988;2023-02-03T00:58:37;99378.78;;;4.98;100.00
57114;BME280;42994;51.606;9.988;2023-02-03T01:01:03;99374.75;;;4.94;100.00
57114;BME280;42994;51.606;9.988;2023-02-03T01:03:32;99375.41;;;5.06;100.00
57114;BME280;42994;51.606;9.988;2023-02-03T01:06:07;99366.59;;;5.05;100.00
57114;BME280;42994;51.606;9.988;2023-02-03T01:08:34;99375.09;;;5.09;100.00
57114;BME280;42994;51.606;9.988;2023-02-03T01:11:05;99372.25;;;5.20;100.00
57114;BME280;42994;51.606;9.988;2023-02-03T01:13:31;99374.31;;;5.26;100.00
57114;BME280;42994;51.606;9.988;2023-02-03T01:15:58;99360.63;;;5.21;100.00
57114;BME280;42994;51.606;9.988;2023-02-03T01:18:25;99369.22;;;5.15;100.00
57114;BME280;42994;51.606;9.988;2023-02-03T01:20:53;99380.38;;;5.18;100.00
57114;BME280;42994;51.606;9.988;2023-02-03T01:23:19;99377.94;;;5.25;100.00
57114;BME280;42994;51.606;9.988;2023-02-03T01:25:46;99385.78;;;5.27;100.00
57114;BME280;42994;51.606;9.988;2023-02-03T01:28:12;99383.22;;;5.35;100.00
57114;BME280;42994;51.606;9.988;2023-02-03T01:30:39;99388.56;;;5.35;100.00
57114;BME280;42994;51.606;9.988;2023-02-03T01:33:06;99396.34;;;5.36;100.00
57114;BME280;42994;51.606;9.988;2023-02-03T01:35:33;99388.56;;;5.35;100.00
57114;BME280;42994;51.606;9.988;2023-02-03T01:38:01;99401.31;;;5.49;100.00
57114;BME280;42994;51.606;9.988;2023-02-03T01:40:28;99403.59;;;5.44;100.00
57114;BME280;42994;51.606;9.988;2023-02-03T01:42:54;99402.53;;;5.37;100.00
57114;BME280;42994;51.606;9.988;2023-02-03T01:45:22;99396.66;;;5.33;100.00
57114;BME280;42994;51.606;9.988;2023-02-03T01:47:52;99396.13;;;5.30;100.00
57114;BME280;42994;51.606;9.988;2023-02-03T01:50:21;99405.63;;;5.32;100.00
57114;BME280;42994;51.606;9.988;2023-02-03T01:52:52;99400.44;;;5.31;100.00
57114;BME280;42994;51.606;9.988;2023-02-03T01:55:26;99392.78;;;5.28;100.00
57114;BME280;42994;51.606;9.988;2023-02-03T01:57:59;99392.94;;;5.26;100.00
57114;BME280;42994;51.606;9.988;2023-02-03T02:00:28;99389.44;;;5.26;100.00
57114;BME280;42994;51.606;9.988;2023-02-03T02:02:57;99393.00;;;5.34;100.00
57114;BME280;42994;51.606;9.988;2023-02-03T02:05:29;99393.31;;;5.31;100.00
57114;BME280;42994;51.606;9.988;2023-02-03T02:07:58;99389.94;;;5.29;100.00
57114;BME280;42994;51.606;9.988;2023-02-03T02:10:27;99389.28;;;5.27;100.00
57114;BME280;42994;51.606;9.988;2023-02-03T02:12:55;99395.88;;;5.23;100.00
57114;BME280;42994;51.606;9.988;2023-02-03T02:15:27;99390.50;;;5.33;100.00
57114;BME280;42994;51.606;9.988;2023-02-03T02:18:16;99391.50;;;5.32;100.00
57114;BME280;42994;51.606;9.988;2023-02-03T02:21:05;99376.38;;;5.32;100.00
57114;BME280;42994;51.606;9.988;2023-02-03T02:23:51;99367.97;;;5.37;100.00
57114;BME280;42994;51.606;9.988;2023-02-03T02:26:47;99357.34;;;5.37;100.00
57114;BME280;42994;51.606;9.988;2023-02-03T02:32:18;99342.66;;;5.51;100.00
57114;BME280;42994;51.606;9.988;2023-02-03T02:34:53;99353.25;;;5.61;100.00
57114;BME280;42994;51.606;9.988;2023-02-03T02:37:34;99330.78;;;5.55;100.00
57114;BME280;42994;51.606;9.988;2023-02-03T02:40:11;99353.94;;;5.63;100.00
57114;BME280;42994;51.606;9.988;2023-02-03T02:42:48;99353.56;;;5.57;100.00
57114;BME280;42994;51.606;9.988;2023-02-03T02:45:23;99351.13;;;5.64;100.00
57114;BME280;42994;51.606;9.988;2023-02-03T02:47:56;99355.75;;;5.62;100.00
57114;BME280;42994;51.606;9.988;2023-02-03T02:50:31;99355.59;;;5.64;100.00
57114;BME280;42994;51.606;9.988;2023-02-03T02:52:59;99368.06;;;5.63;100.00
57114;BME280;42994;51.606;9.988;2023-02-03T02:55:28;99341.94;;;5.58;100.00
57114;BME280;42994;51.606;9.988;2023-02-03T02:58:02;99344.38;;;5.70;100.00
57114;BME280;42994;51.606;9.988;2023-02-03T03:00:33;99336.53;;;5.68;100.00
57114;BME280;42994;51.606;9.988;2023-02-03T03:03:11;99343.31;;;5.63;100.00
57114;BME280;42994;51.606;9.988;2023-02-03T03:05:40;99315.41;;;5.67;100.00
57114;BME280;42994;51.606;9.988;2023-02-03T03:08:10;99322.94;;;5.71;100.00
57114;BME280;42994;51.606;9.988;2023-02-03T03:10:38;99319.56;;;5.69;100.00
57114;BME280;42994;51.606;9.988;2023-02-03T03:13:11;99333.19;;;5.66;100.00
57114;BME280;42994;51.606;9.988;2023-02-03T03:15:40;99315.94;;;5.70;100.00
57114;BME280;42994;51.606;9.988;2023-02-03T03:18:12;99326.72;;;5.69;100.00
57114;BME280;42994;51.606;9.988;2023-02-03T03:20:42;99327.78;;;5.76;100.00
57114;BME280;42994;51.606;9.988;2023-02-03T03:23:14;99342.53;;;5.70;100.00
57114;BME280;42994;51.606;9.988;2023-02-03T03:25:48;99355.06;;;5.78;100.00
57114;BME280;42994;51.606;9.988;2023-02-03T03:28:22;99367.06;;;5.82;100.00
57114;BME280;42994;51.606;9.988;2023-02-03T03:30:51;99388.34;;;5.82;100.00
57114;BME280;42994;51.606;9.988;2023-02-03T03:33:19;99384.66;;;5.75;100.00
57114;BME280;42994;51.606;9.988;2023-02-03T03:35:50;99374.84;;;5.75;100.00
57114;BME280;42994;51.606;9.988;2023-02-03T03:38:22;99368.38;;;5.78;100.00
57114;BME280;42994;51.606;9.988;2023-02-03T03:40:53;99387.66;;;5.80;100.00
57114;BME280;42994;51.606;9.988;2023-02-03T03:43:28;99375.22;;;5.81;100.00
57114;BME280;42994;51.606;9.988;2023-02-03T03:45:59;99373.44;;;5.89;100.00
57114;BME280;42994;51.606;9.988;2023-02-03T03:48:31;99356.97;;;5.86;100.00
57114;BME280;42994;51.606;9.988;2023-02-03T03:51:03;99350.13;;;5.83;100.00
57114;BME280;42994;51.606;9.988;2023-02-03T03:53:32;99358.09;;;5.83;100.00
57114;BME280;42994;51.606;9.988;2023-02-03T03:56:00;99348.69;;;5.89;100.00
57114;BME280;42994;51.606;9.988;2023-02-03T03:58:30;99352.03;;;5.91;100.00
57114;BME280;42994;51.606;9.988;2023-02-03T04:00:59;99352.88;;;5.91;100.00
57114;BME280;42994;51.606;9.988;2023-02-03T04:03:31;99355.53;;;5.91;100.00
57114;BME280;42994;51.606;9.988;2023-02-03T04:05:59;99344.81;;;5.83;100.00
57114;BME280;42994;51.606;9.988;2023-02-03T04:08:25;99355.09;;;5.96;100.00
57114;BME280;42994;51.606;9.988;2023-02-03T04:10:52;99358.59;;;5.96;100.00
57114;BME280;42994;51.606;9.988;2023-02-03T04:13:18;99364.91;;;5.95;100.00
57114;BME280;42994;51.606;9.988;2023-02-03T04:15:45;99357.47;;;5.99;100.00
57114;BME280;42994;51.606;9.988;2023-02-03T04:18:13;99366.56;;;5.96;100.00
57114;BME280;42994;51.606;9.988;2023-02-03T04:20:41;99359.19;;;5.90;100.00
57114;BME280;42994;51.606;9.988;2023-02-03T04:23:08;99359.03;;;5.92;100.00
57114;BME280;42994;51.606;9.988;2023-02-03T04:25:35;99348.06;;;5.95;100.00
57114;BME280;42994;51.606;9.988;2023-02-03T04:28:02;99341.34;;;6.01;100.00
57114;BME280;42994;51.606;9.988;2023-02-03T04:30:30;99361.31;;;6.05;100.00
57114;BME280;42994;51.606;9.988;2023-02-03T04:32:57;99354.66;;;6.01;100.00
57114;BME280;42994;51.606;9.988;2023-02-03T04:35:23;99340.97;;;5.95;100.00
57114;BME280;42994;51.606;9.988;2023-02-03T04:37:51;99343.28;;;5.99;100.00
57114;BME280;42994;51.606;9.988;2023-02-03T04:40:18;99335.75;;;5.94;100.00
57114;BME280;42994;51.606;9.988;2023-02-03T04:42:44;99325.38;;;6.01;100.00
57114;BME280;42994;51.606;9.988;2023-02-03T04:45:11;99330.91;;;6.07;100.00
57114;BME280;42994;51.606;9.988;2023-02-03T04:47:38;99335.91;;;6.10;100.00
57114;BME280;42994;51.606;9.988;2023-02-03T04:50:06;99323.69;;;6.00;100.00
57114;BME280;42994;51.606;9.988;2023-02-03T04:52:32;99332.28;;;5.93;100.00
57114;BME280;42994;51.606;9.988;2023-02-03T04:55:00;99332.06;;;6.05;100.00
57114;BME280;42994;51.606;9.988;2023-02-03T04:57:28;99312.38;;;5.97;100.00
57114;BME280;42994;51.606;9.988;2023-02-03T04:59:54;99320.06;;;6.01;100.00
57114;BME280;42994;51.606;9.988;2023-02-03T05:02:21;99324.66;;;5.99;100.00
57114;BME280;42994;51.606;9.988;2023-02-03T05:04:48;99343.53;;;6.05;100.00
57114;BME280;42994;51.606;9.988;2023-02-03T05:07:14;99328.19;;;5.99;100.00
57114;BME280;42994;51.606;9.988;2023-02-03T05:09:41;99336.06;;;6.09;100.00
57114;BME280;42994;51.606;9.988;2023-02-03T05:12:09;99333.41;;;6.09;100.00
57114;BME280;42994;51.606;9.988;2023-02-03T05:14:35;99330.38;;;6.04;100.00
57114;BME280;42994;51.606;9.988;2023-02-03T05:17:02;99332.84;;;5.97;100.00
57114;BME280;42994;51.606;9.988;2023-02-03T05:19:28;99322.53;;;6.02;100.00
57114;BME280;42994;51.606;9.988;2023-02-03T05:21:55;99317.69;;;5.97;100.00
57114;BME280;42994;51.606;9.988;2023-02-03T05:24:21;99315.41;;;6.03;100.00
57114;BME280;42994;51.606;9.988;2023-02-03T05:26:48;99305.88;;;6.00;100.00
57114;BME280;42994;51.606;9.988;2023-02-03T05:29:16;99305.22;;;5.98;100.00
57114;BME280;42994;51.606;9.988;2023-02-03T05:31:43;99308.56;;;6.00;100.00
57114;BME280;42994;51.606;9.988;2023-02-03T05:34:09;99315.41;;;6.03;100.00
57114;BME280;42994;51.606;9.988;2023-02-03T05:36:36;99315.72;;;6.00;100.00
57114;BME280;42994;51.606;9.988;2023-02-03T05:39:03;99315.94;;;6.06;100.00
57114;BME280;42994;51.606;9.988;2023-02-03T05:41:29;99297.97;;;6.08;100.00
57114;BME280;42994;51.606;9.988;2023-02-03T05:44:13;99294.53;;;6.16;100.00
57114;BME280;42994;51.606;9.988;2023-02-03T05:46:41;99299.41;;;6.21;100.00
57114;BME280;42994;51.606;9.988;2023-02-03T05:49:08;99317.84;;;6.22;100.00
57114;BME280;42994;51.606;9.988;2023-02-03T05:51:34;99312.88;;;6.19;100.00
57114;BME280;42994;51.606;9.988;2023-02-03T05:54:01;99323.50;;;6.19;100.00
57114;BME280;42994;51.606;9.988;2023-02-03T05:56:28;99324.78;;;6.15;100.00
57114;BME280;42994;51.606;9.988;2023-02-03T05:58:54;99317.91;;;6.30;100.00
57114;BME280;42994;51.606;9.988;2023-02-03T06:01:21;99310.56;;;6.24;100.00
57114;BME280;42994;51.606;9.988;2023-02-03T06:03:49;99304.19;;;6.17;100.00
57114;BME280;42994;51.606;9.988;2023-02-03T06:06:17;99298.03;;;6.16;100.00
57114;BME280;42994;51.606;9.988;2023-02-03T06:08:43;99289.94;;;6.26;100.00
57114;BME280;42994;51.606;9.988;2023-02-03T06:11:10;99287.91;;;6.20;100.00
57114;BME280;42994;51.606;9.988;2023-02-03T06:13:37;99288.25;;;6.25;100.00
57114;BME280;42994;51.606;9.988;2023-02-03T06:16:04;99294.75;;;6.23;100.00
57114;BME280;42994;51.606;9.988;2023-02-03T06:18:31;99294.22;;;6.19;100.00
57114;BME280;42994;51.606;9.988;2023-02-03T06:20:59;99298.25;;;6.23;100.00
57114;BME280;42994;51.606;9.988;2023-02-03T06:23:25;99297.25;;;6.24;100.00
57114;BME280;42994;51.606;9.988;2023-02-03T06:25:52;99295.28;;;6.26;100.00
57114;BME280;42994;51.606;9.988;2023-02-03T06:28:19;99299.06;;;6.24;100.00
57114;BME280;42994;51.606;9.988;2023-02-03T06:30:48;99286.63;;;6.24;100.00
57114;BME280;42994;51.606;9.988;2023-02-03T06:33:16;99311.25;;;6.26;100.00
57114;BME280;42994;51.606;9.988;2023-02-03T06:35:42;99302.78;;;6.31;100.00
57114;BME280;42994;51.606;9.988;2023-02-03T06:38:10;99299.75;;;6.26;100.00
57114;BME280;42994;51.606;9.988;2023-02-03T06:40:37;99297.94;;;6.26;100.00
57114;BME280;42994;51.606;9.988;2023-02-03T06:43:04;99293.06;;;6.22;100.00
57114;BME280;42994;51.606;9.988;2023-02-03T06:45:30;99286.94;;;6.29;100.00
57114;BME280;42994;51.606;9.988;2023-02-03T06:47:57;99295.47;;;6.33;100.00
57114;BME280;42994;51.606;9.988;2023-02-03T06:50:24;99305.97;;;6.34;100.00
57114;BME280;42994;51.606;9.988;2023-02-03T06:52:50;99302.94;;;6.29;100.00
57114;BME280;42994;51.606;9.988;2023-02-03T06:55:18;99297.59;;;6.29;100.00
57114;BME280;42994;51.606;9.988;2023-02-03T06:57:46;99292.13;;;6.31;100.00
57114;BME280;42994;51.606;9.988;2023-02-03T07:00:14;99289.47;;;6.31;100.00
57114;BME280;42994;51.606;9.988;2023-02-03T07:02:42;99291.16;;;6.32;100.00
57114;BME280;42994;51.606;9.988;2023-02-03T07:05:09;99298.63;;;6.28;100.00
57114;BME280;42994;51.606;9.988;2023-02-03T07:07:36;99293.91;;;6.22;100.00
57114;BME280;42994;51.606;9.988;2023-02-03T07:10:04;99288.22;;;6.17;100.00
57114;BME280;42994;51.606;9.988;2023-02-03T07:12:32;99281.22;;;6.16;100.00
57114;BME280;42994;51.606;9.988;2023-02-03T07:15:01;99277.22;;;6.12;100.00
57114;BME280;42994;51.606;9.988;2023-02-03T07:17:27;99277.06;;;6.13;100.00
57114;BME280;42994;51.606;9.988;2023-02-03T07:19:54;99268.56;;;6.10;100.00
57114;BME280;42994;51.606;9.988;2023-02-03T07:22:20;99264.50;;;6.06;100.00
57114;BME280;42994;51.606;9.988;2023-02-03T07:24:47;99265.16;;;6.00;100.00
57114;BME280;42994;51.606;9.988;2023-02-03T07:27:13;99267.13;;;5.97;100.00
57114;BME280;42994;51.606;9.988;2023-02-03T07:29:41;99268.63;;;6.00;100.00
57114;BME280;42994;51.606;9.988;2023-02-03T07:32:08;99265.00;;;6.01;100.00
57114;BME280;42994;51.606;9.988;2023-02-03T07:34:35;99274.34;;;6.05;100.00
57114;BME280;42994;51.606;9.988;2023-02-03T07:37:01;99269.22;;;6.12;100.00
57114;BME280;42994;51.606;9.988;2023-02-03T07:39:28;99265.56;;;6.13;100.00
57114;BME280;42994;51.606;9.988;2023-02-03T07:41:54;99273.47;;;6.23;100.00
57114;BME280;42994;51.606;9.988;2023-02-03T07:44:22;99273.91;;;6.18;100.00
57114;BME280;42994;51.606;9.988;2023-02-03T07:46:50;99263.25;;;6.18;100.00
57114;BME280;42994;51.606;9.988;2023-02-03T07:49:17;99259.09;;;6.15;100.00
57114;BME280;42994;51.606;9.988;2023-02-03T07:51:43;99265.91;;;6.10;100.00
57114;BME280;42994;51.606;9.988;2023-02-03T07:54:10;99273.88;;;6.10;100.00
57114;BME280;42994;51.606;9.988;2023-02-03T07:56:36;99277.00;;;6.05;100.00
57114;BME280;42994;51.606;9.988;2023-02-03T07:59:03;99247.34;;;6.00;100.00
57114;BME280;42994;51.606;9.988;2023-02-03T08:01:29;99249.34;;;5.98;100.00
57114;BME280;42994;51.606;9.988;2023-02-03T08:03:59;99233.66;;;5.95;100.00
57114;BME280;42994;51.606;9.988;2023-02-03T08:06:29;99221.50;;;5.92;100.00
57114;BME280;42994;51.606;9.988;2023-02-03T08:08:56;99210.34;;;5.89;100.00
57114;BME280;42994;51.606;9.988;2023-02-03T08:11:22;99208.34;;;5.91;100.00
57114;BME280;42994;51.606;9.988;2023-02-03T08:13:49;99214.69;;;5.90;100.00
57114;BME280;42994;51.606;9.988;2023-02-03T08:16:16;99210.47;;;5.87;100.00
57114;BME280;42994;51.606;9.988;2023-02-03T08:18:42;99213.47;;;5.84;100.00
57114;BME280;42994;51.606;9.988;2023-02-03T08:21:10;99211.78;;;5.83;100.00
57114;BME280;42994;51.606;9.988;2023-02-03T08:23:37;99208.31;;;5.83;100.00
57114;BME280;42994;51.606;9.988;2023-02-03T08:26:03;99204.78;;;5.82;100.00
57114;BME280;42994;51.606;9.988;2023-02-03T08:28:30;99187.84;;;5.83;100.00
57114;BME280;42994;51.606;9.988;2023-02-03T08:30:57;99193.31;;;5.82;100.00
57114;BME280;42994;51.606;9.988;2023-02-03T08:33:23;99196.34;;;5.87;100.00
57114;BME280;42994;51.606;9.988;2023-02-03T08:35:50;99178.19;;;5.82;100.00
57114;BME280;42994;51.606;9.988;2023-02-03T08:38:18;99192.50;;;5.81;100.00
57114;BME280;42994;51.606;9.988;2023-02-03T08:40:46;99188.84;;;5.82;100.00
57114;BME280;42994;51.606;9.988;2023-02-03T08:43:12;99187.69;;;5.85;100.00
57114;BME280;42994;51.606;9.988;2023-02-03T08:45:39;99194.16;;;5.82;100.00
57114;BME280;42994;51.606;9.988;2023-02-03T08:48:06;99211.78;;;5.83;100.00
57114;BME280;42994;51.606;9.988;2023-02-03T08:50:32;99200.53;;;5.89;100.00
57114;BME280;42994;51.606;9.988;2023-02-03T08:52:59;99202.50;;;5.87;100.00
57114;BME280;42994;51.606;9.988;2023-02-03T08:55:27;99180.91;;;5.90;100.00
57114;BME280;42994;51.606;9.988;2023-02-03T08:57:54;99163.28;;;5.89;100.00
57114;BME280;42994;51.606;9.988;2023-02-03T09:00:21;99185.75;;;5.95;100.00
57114;BME280;42994;51.606;9.988;2023-02-03T09:02:47;99159.53;;;6.00;100.00
57114;BME280;42994;51.606;9.988;2023-02-03T09:05:14;99171.03;;;6.01;100.00
57114;BME280;42994;51.606;9.988;2023-02-03T09:07:42;99172.84;;;6.00;100.00
57114;BME280;42994;51.606;9.988;2023-02-03T09:10:09;99172.44;;;5.95;100.00
57114;BME280;42994;51.606;9.988;2023-02-03T09:12:37;99170.34;;;5.99;100.00
57114;BME280;42994;51.606;9.988;2023-02-03T09:15:04;99160.69;;;5.97;100.00
57114;BME280;42994;51.606;9.988;2023-02-03T09:17:31;99155.06;;;6.01;100.00
57114;BME280;42994;51.606;9.988;2023-02-03T09:19:58;99169.34;;;6.00;100.00
57114;BME280;42994;51.606;9.988;2023-02-03T09:22:24;99166.53;;;6.01;100.00
57114;BME280;42994;51.606;9.988;2023-02-03T09:24:51;99171.34;;;5.97;100.00
57114;BME280;42994;51.606;9.988;2023-02-03T09:27:17;99167.69;;;5.99;100.00
57114;BME280;42994;51.606;9.988;2023-02-03T09:29:45;99184.50;;;5.99;100.00
57114;BME280;42994;51.606;9.988;2023-02-03T09:32:12;99182.81;;;5.98;100.00
57114;BME280;42994;51.606;9.988;2023-02-03T09:34:39;99181.69;;;6.01;100.00
57114;BME280;42994;51.606;9.988;2023-02-03T09:37:05;99171.03;;;6.01;100.00
57114;BME280;42994;51.606;9.988;2023-02-03T09:39:32;99181.69;;;6.01;100.00
57114;BME280;42994;51.606;9.988;2023-02-03T09:42:16;99178.38;;;6.07;100.00
57114;BME280;42994;51.606;9.988;2023-02-03T09:44:49;99171.56;;;6.04;100.00
57114;BME280;42994;51.606;9.988;2023-02-03T09:47:22;99177.41;;;6.08;100.00
57114;BME280;42994;51.606;9.988;2023-02-03T09:49:51;99172.41;;;6.13;100.00
57114;BME280;42994;51.606;9.988;2023-02-03T09:52:20;99169.75;;;6.13;100.00
57114;BME280;42994;51.606;9.988;2023-02-03T09:54:52;99176.91;;;6.12;100.00
57114;BME280;42994;51.606;9.988;2023-02-03T09:57:22;99177.22;;;6.09;100.00
57114;BME280;42994;51.606;9.988;2023-02-03T09:59:52;99159.97;;;6.13;100.00
57114;BME280;42994;51.606;9.988;2023-02-03T10:02:27;99166.78;;;6.16;100.00
57114;BME280;42994;51.606;9.988;2023-02-03T10:05:03;99170.78;;;6.20;100.00
57114;BME280;42994;51.606;9.988;2023-02-03T10:07:37;99178.91;;;6.19;100.00
57114;BME280;42994;51.606;9.988;2023-02-03T10:10:14;99179.44;;;6.22;100.00
57114;BME280;42994;51.606;9.988;2023-02-03T10:12:53;99171.13;;;6.17;100.00
57114;BME280;42994;51.606;9.988;2023-02-03T10:15:52;99156.81;;;6.18;100.00
57114;BME280;42994;51.606;9.988;2023-02-03T10:18:23;99153.47;;;6.16;100.00
57114;BME280;42994;51.606;9.988;2023-02-03T10:20:54;99158.66;;;6.26;100.00
57114;BME280;42994;51.606;9.988;2023-02-03T10:23:26;99156.66;;;6.20;100.00
57114;BME280;42994;51.606;9.988;2023-02-03T10:25:55;99159.47;;;6.18;100.00
57114;BME280;42994;51.606;9.988;2023-02-03T10:28:25;99154.97;;;6.19;100.00
57114;BME280;42994;51.606;9.988;2023-02-03T10:30:57;99151.31;;;6.20;100.00
57114;BME280;42994;51.606;9.988;2023-02-03T10:33:24;99140.69;;;6.20;100.00
57114;BME280;42994;51.606;9.988;2023-02-03T10:35:53;99124.84;;;6.18;100.00
57114;BME280;42994;51.606;9.988;2023-02-03T10:38:34;99117.03;;;6.16;100.00
57114;BME280;42994;51.606;9.988;2023-02-03T10:41:05;99129.22;;;6.19;100.00
57114;BME280;42994;51.606;9.988;2023-02-03T10:43:32;99106.38;;;6.16;100.00
57114;BME280;42994;51.606;9.988;2023-02-03T10:46:19;99103.94;;;6.31;100.00
57114;BME280;42994;51.606;9.988;2023-02-03T10:48:46;99101.13;;;6.33;100.00
57114;BME280;42994;51.606;9.988;2023-02-03T10:51:24;99084.00;;;6.35;100.00
57114;BME280;42994;51.606;9.988;2023-02-03T10:53:51;99075.34;;;6.33;100.00
57114;BME280;42994;51.606;9.988;2023-02-03T10:56:20;99082.81;;;6.38;100.00
57114;BME280;42994;51.606;9.988;2023-02-03T10:58:49;99072.84;;;6.40;100.00
57114;BME280;42994;51.606;9.988;2023-02-03T11:01:20;99077.50;;;6.38;100.00
57114;BME280;42994;51.606;9.988;2023-02-03T11:03:57;99060.69;;;6.38;100.00
57114;BME280;42994;51.606;9.988;2023-02-03T11:06:24;99064.84;;;6.40;100.00
57114;BME280;42994;51.606;9.988;2023-02-03T11:08:51;99077.03;;;6.43;100.00
57114;BME280;42994;51.606;9.988;2023-02-03T11:11:23;99086.50;;;6.45;100.00
57114;BME280;42994;51.606;9.988;2023-02-03T11:13:54;99077.03;;;6.43;100.00
57114;BME280;42994;51.606;9.988;2023-02-03T11:16:22;99062.34;;;6.39;100.00
57114;BME280;42994;51.606;9.988;2023-02-03T11:18:57;99068.69;;;6.38;100.00
57114;BME280;42994;51.606;9.988;2023-02-03T11:21:29;99069.69;;;6.37;100.00
57114;BME280;42994;51.606;9.988;2023-02-03T11:24:02;99074.19;;;6.36;100.00
57114;BME280;42994;51.606;9.988;2023-02-03T11:26:33;99067.88;;;6.37;100.00
57114;BME280;42994;51.606;9.988;2023-02-03T11:29:03;99083.16;;;6.35;100.00
57114;BME280;42994;51.606;9.988;2023-02-03T11:31:33;99080.31;;;6.37;100.00
57114;BME280;42994;51.606;9.988;2023-02-03T11:34:03;99072.69;;;6.33;100.00
57114;BME280;42994;51.606;9.988;2023-02-03T11:36:32;99074.50;;;6.33;100.00
57114;BME280;42994;51.606;9.988;2023-02-03T11:39:15;99074.19;;;6.36;100.00
57114;BME280;42994;51.606;9.988;2023-02-03T11:41:43;99075.16;;;6.35;100.00
57114;BME280;42994;51.606;9.988;2023-02-03T11:44:10;99070.84;;;6.34;100.00
57114;BME280;42994;51.606;9.988;2023-02-03T11:46:39;99086.97;;;6.32;100.00
57114;BME280;42994;51.606;9.988;2023-02-03T11:49:14;99093.13;;;6.33;100.00
57114;BME280;42994;51.606;9.988;2023-02-03T11:51:52;99100.97;;;6.34;100.00
57114;BME280;42994;51.606;9.988;2023-02-03T11:54:26;99115.94;;;6.35;100.00
57114;BME280;42994;51.606;9.988;2023-02-03T11:57:10;99121.44;;;6.42;100.00
57114;BME280;42994;51.606;9.988;2023-02-03T11:59:54;99127.09;;;6.39;100.00
57114;BME280;42994;51.606;9.988;2023-02-03T12:02:57;99127.63;;;6.43;100.00
57114;BME280;42994;51.606;9.988;2023-02-03T12:05:52;99138.75;;;6.38;100.00
57114;BME280;42994;51.606;9.988;2023-02-03T12:08:34;99138.91;;;6.37;100.00
57114;BME280;42994;51.606;9.988;2023-02-03T12:11:12;99129.25;;;6.35;100.00
57114;BME280;42994;51.606;9.988;2023-02-03T12:13:58;99134.75;;;6.34;100.00
57114;BME280;42994;51.606;9.988;2023-02-03T12:16:45;99142.56;;;6.35;100.00
57114;BME280;42994;51.606;9.988;2023-02-03T12:19:26;99149.88;;;6.33;100.00
57114;BME280;42994;51.606;9.988;2023-02-03T12:22:01;99159.84;;;6.31;100.00
57114;BME280;42994;51.606;9.988;2023-02-03T12:24:40;99167.31;;;6.28;100.00
57114;BME280;42994;51.606;9.988;2023-02-03T12:27:18;99204.09;;;6.24;100.00
57114;BME280;42994;51.606;9.988;2023-02-03T12:29:49;99208.91;;;6.21;100.00
57114;BME280;42994;51.606;9.988;2023-02-03T12:32:24;99210.53;;;6.13;100.00
57114;BME280;42994;51.606;9.988;2023-02-03T12:34:58;99208.31;;;6.09;100.00
57114;BME280;42994;51.606;9.988;2023-02-03T12:37:29;99219.47;;;6.04;100.00
57114;BME280;42994;51.606;9.988;2023-02-03T12:39:59;99221.09;;;6.05;100.00
57114;BME280;42994;51.606;9.988;2023-02-03T12:42:31;99235.72;;;6.01;100.00
57114;BME280;42994;51.606;9.988;2023-02-03T12:45:04;99251.69;;;6.01;100.00
57114;BME280;42994;51.606;9.988;2023-02-03T12:47:40;99247.03;;;6.03;100.00
57114;BME280;42994;51.606;9.988;2023-02-03T12:50:16;99245.38;;;6.02;100.00
57114;BME280;42994;51.606;9.988;2023-02-03T12:52:47;99235.09;;;6.07;100.00
57114;BME280;42994;51.606;9.988;2023-02-03T12:55:21;99262.56;;;6.08;100.00
57114;BME280;42994;51.606;9.988;2023-02-03T12:57:54;99264.22;;;6.09;100.00
57114;BME280;42994;51.606;9.988;2023-02-03T13:00:34;99283.50;;;6.11;100.00
57114;BME280;42994;51.606;9.988;2023-02-03T13:03:14;99298.03;;;6.16;100.00
57114;BME280;42994;51.606;9.988;2023-02-03T13:05:47;99307.53;;;6.19;100.00
57114;BME280;42994;51.606;9.988;2023-02-03T13:08:22;99310.19;;;6.19;100.00
57114;BME280;42994;51.606;9.988;2023-02-03T13:10:54;99316.34;;;6.20;100.00
57114;BME280;42994;51.606;9.988;2023-02-03T13:13:28;99325.84;;;6.22;100.00
57114;BME280;42994;51.606;9.988;2023-02-03T13:15:58;99322.34;;;6.22;100.00
57114;BME280;42994;51.606;9.988;2023-02-03T13:18:28;99316.34;;;6.20;100.00